createdAt,value
2019-04-05T00:01:09.380Z,60.11
2019-04-05T00:03:11.000Z,60.21
2019-04-05T00:05:12.612Z,60.67
2019-04-05T00:07:14.228Z,61.00
2019-04-05T00:09:15.883Z,61.10
2019-04-05T00:11:17.467Z,61.21
2019-04-05T00:13:19.120Z,61.17
2019-04-05T00:15:20.718Z,61.32
2019-04-05T00:17:22.308Z,62.02
2019-04-05T00:19:23.946Z,61.58
2019-04-05T00:21:25.563Z,61.63
2019-04-05T00:23:27.161Z,61.56
2019-04-05T00:25:28.756Z,61.66
2019-04-05T00:27:30.361Z,61.61
2019-04-05T00:29:32.015Z,61.58
2019-04-05T00:31:33.638Z,61.35
2019-04-05T00:33:35.235Z,61.28
2019-04-05T00:35:36.861Z,61.47
2019-04-05T00:37:38.452Z,61.24
2019-04-05T00:39:40.100Z,61.26
2019-04-05T00:41:41.717Z,61.23
2019-04-05T00:43:43.321Z,61.23
2019-04-05T00:45:44.915Z,61.11
2019-04-05T00:47:46.495Z,61.11
2019-04-05T00:49:48.123Z,60.85
2019-04-05T00:51:49.733Z,60.54
2019-04-05T00:53:51.332Z,60.34
2019-04-05T00:55:52.948Z,59.92
2019-04-05T00:57:54.544Z,59.81
2019-04-05T00:59:56.132Z,59.69
2019-04-05T01:01:57.757Z,59.84
2019-04-05T01:03:59.384Z,59.70
2019-04-05T01:06:01.012Z,59.98
2019-04-05T01:08:02.633Z,60.05
2019-04-05T01:10:04.285Z,60.00
2019-04-05T01:12:05.882Z,59.98
2019-04-05T01:14:07.501Z,60.24
2019-04-05T01:16:09.116Z,60.29
2019-04-05T01:18:10.745Z,60.40
2019-04-05T01:20:12.351Z,60.49
2019-04-05T01:22:13.967Z,60.68
2019-04-05T01:24:15.561Z,60.85
2019-04-05T01:26:17.213Z,60.88
2019-04-05T01:28:18.801Z,60.66
2019-04-05T01:30:20.426Z,60.81
2019-04-05T01:32:22.013Z,61.02
2019-04-05T01:34:23.665Z,61.00
2019-04-05T01:36:25.257Z,61.35
2019-04-05T01:38:26.848Z,61.44
2019-04-05T01:40:28.446Z,61.67
2019-04-05T01:42:30.039Z,61.99
2019-04-05T01:44:31.664Z,62.06
2019-04-05T01:46:33.280Z,61.99
2019-04-05T01:48:34.875Z,62.46
2019-04-05T01:50:36.464Z,62.21
2019-04-05T01:52:38.079Z,62.23
2019-04-05T01:54:39.748Z,62.57
2019-04-05T01:56:41.369Z,62.69
2019-04-05T01:58:42.984Z,62.77
2019-04-05T02:00:44.605Z,62.45
2019-04-05T02:02:46.204Z,61.55
2019-04-05T02:04:47.817Z,61.56
2019-04-05T02:06:49.442Z,61.23
2019-04-05T02:08:51.046Z,61.22
2019-04-05T02:10:52.681Z,60.97
2019-04-05T02:12:54.277Z,60.86
2019-04-05T02:14:55.904Z,60.90
2019-04-05T02:16:57.501Z,60.65
2019-04-05T02:18:59.151Z,60.78
2019-04-05T02:21:00.753Z,60.65
2019-04-05T02:23:02.345Z,60.97
2019-04-05T02:25:03.994Z,60.91
2019-04-05T02:27:05.624Z,60.40
2019-04-05T02:29:07.264Z,60.58
2019-04-05T02:31:08.925Z,60.39
2019-04-05T02:33:10.559Z,60.05
2019-04-05T02:35:12.186Z,60.19
2019-04-05T02:37:13.808Z,60.06
2019-04-05T02:39:15.397Z,59.84
2019-04-05T02:41:17.025Z,59.67
2019-04-05T02:43:18.639Z,59.91
2019-04-05T02:45:20.250Z,59.55
2019-04-05T02:47:21.919Z,59.62
2019-04-05T02:49:23.562Z,59.68
2019-04-05T02:51:25.183Z,59.87
2019-04-05T02:53:26.801Z,59.78
2019-04-05T02:55:28.398Z,59.86
2019-04-05T02:57:30.054Z,59.98
2019-04-05T02:59:31.662Z,60.37
2019-04-05T03:01:33.287Z,60.52
2019-04-05T03:03:34.882Z,60.30
2019-04-05T03:05:36.511Z,60.33
2019-04-05T03:07:38.174Z,60.22
2019-04-05T03:09:39.778Z,60.24
2019-04-05T03:11:41.422Z,60.20
2019-04-05T03:13:43.001Z,60.04
2019-04-05T03:15:44.603Z,60.35
2019-04-05T03:17:46.242Z,60.62
2019-04-05T03:19:47.835Z,60.18
2019-04-05T03:21:49.433Z,59.90
2019-04-05T03:23:51.020Z,60.19
2019-04-05T03:25:52.608Z,59.97
2019-04-05T03:27:54.198Z,60.28
2019-04-05T03:29:55.814Z,60.10
2019-04-05T03:31:57.432Z,60.44
2019-04-05T03:33:59.074Z,60.04
2019-04-05T03:36:00.703Z,59.90
2019-04-05T03:38:02.307Z,59.94
2019-04-05T03:40:03.927Z,59.92
2019-04-05T03:42:05.521Z,59.92
2019-04-05T03:44:07.116Z,60.15
2019-04-05T03:46:08.761Z,60.20
2019-04-05T03:48:10.358Z,60.13
2019-04-05T03:50:12.046Z,60.14
2019-04-05T03:52:13.654Z,60.27
2019-04-05T03:54:15.257Z,60.29
2019-04-05T03:56:16.895Z,60.26
2019-04-05T03:58:18.490Z,60.01
2019-04-05T04:00:20.109Z,60.07
2019-04-05T04:02:23.495Z,60.13
2019-04-05T04:04:23.354Z,60.00
2019-04-05T04:06:24.968Z,60.05
2019-04-05T04:08:26.580Z,60.78
2019-04-05T04:10:28.234Z,60.46
2019-04-05T04:12:29.837Z,60.19
2019-04-05T04:14:31.467Z,60.02
2019-04-05T04:16:33.060Z,60.35
2019-04-05T04:18:34.659Z,60.45
2019-04-05T04:20:36.308Z,60.57
2019-04-05T04:22:37.925Z,60.62
2019-04-05T04:24:39.529Z,60.69
2019-04-05T04:26:41.121Z,60.66
2019-04-05T04:28:42.714Z,60.59
2019-04-05T04:30:44.370Z,60.36
2019-04-05T04:32:45.968Z,60.54
2019-04-05T04:34:47.575Z,60.41
2019-04-05T04:36:49.158Z,60.51
2019-04-05T04:38:50.753Z,60.58
2019-04-05T04:40:52.404Z,60.21
2019-04-05T04:42:54.049Z,60.03
2019-04-05T04:44:55.631Z,60.05
2019-04-05T04:46:57.254Z,59.78
2019-04-05T04:48:58.957Z,60.00
2019-04-05T04:51:00.558Z,60.09
2019-04-05T04:53:02.194Z,59.84
2019-04-05T04:55:03.812Z,59.94
2019-04-05T04:57:05.433Z,59.78
2019-04-05T04:59:07.042Z,59.87
2019-04-05T05:01:08.666Z,60.53
2019-04-05T05:03:10.329Z,59.90
2019-04-05T05:05:11.953Z,59.61
2019-04-05T05:07:13.604Z,58.80
2019-04-05T05:09:15.202Z,58.45
2019-04-05T05:11:16.841Z,58.34
2019-04-05T05:13:18.469Z,58.44
2019-04-05T05:15:20.085Z,58.38
2019-04-05T05:17:21.682Z,58.25
2019-04-05T05:19:23.290Z,58.26
2019-04-05T05:21:24.902Z,58.24
2019-04-05T05:23:26.491Z,58.19
2019-04-05T05:25:28.093Z,58.16
2019-04-05T05:27:29.713Z,58.08
2019-04-05T05:29:31.359Z,58.06
2019-04-05T05:31:32.972Z,57.94
2019-04-05T05:33:34.578Z,57.86
2019-04-05T05:35:36.187Z,57.75
2019-04-05T05:37:37.797Z,57.73
2019-04-05T05:39:39.409Z,57.72
2019-04-05T05:41:41.026Z,57.71
2019-04-05T05:43:42.618Z,57.68
2019-04-05T05:45:44.202Z,57.63
2019-04-05T05:47:51.624Z,57.54
2019-04-05T05:49:47.550Z,57.49
2019-04-05T05:51:49.156Z,57.45
2019-04-05T05:53:50.757Z,57.34
2019-04-05T05:55:52.411Z,57.29
2019-04-05T05:57:54.847Z,57.20
2019-04-05T05:59:55.747Z,57.09
2019-04-05T06:01:57.335Z,57.10
2019-04-05T06:03:58.947Z,57.04
2019-04-05T06:06:04.638Z,57.10
2019-04-05T06:08:02.274Z,57.08
2019-04-05T06:10:03.930Z,57.05
2019-04-05T06:12:05.540Z,57.03
2019-04-05T06:14:07.160Z,56.97
2019-04-05T06:16:08.792Z,56.93
2019-04-05T06:18:12.684Z,56.89
2019-04-05T06:20:12.121Z,56.82
2019-04-05T06:22:13.720Z,56.76
2019-04-05T06:24:15.298Z,56.75
2019-04-05T06:26:16.948Z,56.74
2019-04-05T06:28:18.544Z,56.73
2019-04-05T06:30:20.196Z,56.71
2019-04-05T06:32:21.816Z,56.67
2019-04-05T06:34:23.437Z,56.69
2019-04-05T06:36:25.049Z,56.65
2019-04-05T06:38:26.684Z,56.64
2019-04-05T06:40:40.266Z,56.63
2019-04-05T06:42:29.976Z,56.71
2019-04-05T06:44:31.567Z,56.75
2019-04-05T06:46:33.189Z,56.79
2019-04-05T06:48:34.809Z,56.85
2019-04-05T06:50:36.468Z,56.88
2019-04-05T06:52:38.088Z,56.90
2019-04-05T06:54:39.695Z,56.96
2019-04-05T06:56:41.290Z,56.96
2019-04-05T06:58:46.126Z,56.90
2019-04-05T07:00:56.447Z,56.80
2019-04-05T07:02:46.209Z,56.70
2019-04-05T07:04:47.812Z,56.61
2019-04-05T07:06:49.437Z,56.43
2019-04-05T07:08:54.058Z,56.31
2019-04-05T07:10:52.739Z,56.21
2019-04-05T07:12:54.442Z,56.15
2019-04-05T07:14:56.343Z,56.10
2019-04-05T07:16:57.657Z,55.97
2019-04-05T07:18:59.253Z,55.98
2019-04-05T07:21:00.877Z,55.95
2019-04-05T07:23:02.499Z,55.94
2019-04-05T07:25:04.116Z,55.99
2019-04-05T07:27:05.703Z,56.01
2019-04-05T07:29:07.292Z,49.63
2019-04-05T07:31:08.932Z,47.72
2019-04-05T07:33:10.553Z,46.32
2019-04-05T07:35:12.158Z,46.03
2019-04-05T07:37:13.738Z,45.52
2019-04-05T07:39:15.333Z,44.40
2019-04-05T07:41:16.974Z,44.63
2019-04-05T07:43:18.569Z,44.83
2019-04-05T07:45:20.148Z,44.26
2019-04-05T07:47:21.821Z,44.31
2019-04-05T07:49:23.433Z,44.30
2019-04-05T07:53:33.128Z,44.02
2019-04-05T07:55:34.863Z,43.69
2019-04-05T07:57:36.493Z,43.45
2019-04-05T07:59:38.123Z,43.10
2019-04-05T08:01:39.780Z,43.00
2019-04-05T08:03:41.397Z,42.59
2019-04-05T08:05:43.012Z,42.27
2019-04-05T08:07:44.665Z,42.17
2019-04-05T08:09:46.279Z,42.25
2019-04-05T08:11:47.900Z,41.60
2019-04-05T08:13:49.520Z,41.39
2019-04-05T08:15:51.148Z,41.05
2019-04-05T08:17:52.795Z,42.00
2019-04-05T08:19:54.393Z,42.02
2019-04-05T08:21:56.112Z,41.35
2019-04-05T08:23:57.728Z,40.98
2019-04-05T08:25:59.336Z,41.22
2019-04-05T08:28:01.031Z,40.97
2019-04-05T08:30:02.660Z,41.37
2019-04-05T08:32:13.856Z,41.30
2019-04-05T08:34:05.965Z,41.38
2019-04-05T08:36:07.564Z,42.66
2019-04-05T08:38:09.187Z,43.15
2019-04-05T08:40:10.791Z,43.97
2019-04-05T08:42:12.410Z,44.02
2019-04-05T08:44:14.017Z,44.73
2019-04-05T08:46:15.633Z,44.96
2019-04-05T08:48:17.260Z,45.49
2019-04-05T08:50:18.873Z,45.98
2019-04-05T08:52:20.473Z,45.71
2019-04-05T08:54:31.905Z,45.81
2019-04-05T08:56:23.719Z,45.97
2019-04-05T08:58:33.235Z,46.10
2019-04-05T09:00:26.999Z,46.32
2019-04-05T09:02:28.617Z,46.55
2019-04-05T09:04:30.229Z,46.69
2019-04-05T09:06:31.860Z,46.78
2019-04-05T09:08:33.463Z,46.90
2019-04-05T09:10:35.191Z,47.05
2019-04-05T09:12:36.796Z,47.26
2019-04-05T09:14:38.406Z,47.41
2019-04-05T09:16:40.005Z,47.54
2019-04-05T09:18:41.592Z,47.74
2019-04-05T09:20:43.220Z,47.80
2019-04-05T09:22:44.845Z,47.96
2019-04-05T09:24:46.489Z,48.14
2019-04-05T09:26:48.099Z,48.23
2019-04-05T09:28:49.692Z,48.26
2019-04-05T09:30:51.949Z,48.33
2019-04-05T09:32:53.010Z,48.30
2019-04-05T09:34:54.642Z,48.39
2019-04-05T09:36:56.254Z,48.50
2019-04-05T09:38:57.838Z,48.55
2019-04-05T09:40:59.471Z,48.62
2019-04-05T09:43:01.063Z,48.62
2019-04-05T09:45:02.713Z,48.67
2019-04-05T09:47:04.309Z,48.65
2019-04-05T09:49:05.957Z,48.71
2019-04-05T09:51:07.577Z,48.76
2019-04-05T09:53:09.182Z,48.87
2019-04-05T09:55:10.840Z,49.01
2019-04-05T09:57:12.447Z,49.05
2019-04-05T09:59:14.051Z,49.04
2019-04-05T10:01:15.668Z,49.04
2019-04-05T10:03:17.284Z,49.08
2019-04-05T10:05:18.884Z,49.05
2019-04-05T10:07:20.477Z,49.13
2019-04-05T10:09:22.097Z,49.14
2019-04-05T10:11:23.693Z,49.23
2019-04-05T10:13:25.299Z,49.30
2019-04-05T10:15:26.922Z,49.34
2019-04-05T10:17:28.571Z,49.40
2019-04-05T10:19:30.194Z,49.44
2019-04-05T10:21:31.836Z,49.44
2019-04-05T10:23:33.456Z,49.45
2019-04-05T10:25:35.082Z,49.66
2019-04-05T10:27:36.740Z,49.91
2019-04-05T10:29:38.352Z,49.76
2019-04-05T10:31:40.007Z,49.71
2019-04-05T10:33:41.625Z,49.97
2019-04-05T10:35:43.245Z,50.18
2019-04-05T10:37:44.874Z,50.32
2019-04-05T10:39:46.486Z,50.06
2019-04-05T10:41:48.094Z,49.81
2019-04-05T10:43:49.716Z,50.01
2019-04-05T10:45:51.311Z,50.22
2019-04-05T10:47:52.939Z,50.32
2019-04-05T10:50:02.812Z,50.53
2019-04-05T10:51:56.180Z,50.34
2019-04-05T10:53:57.763Z,50.32
2019-04-05T10:55:59.357Z,50.29
2019-04-05T10:58:01.024Z,50.16
2019-04-05T11:00:02.607Z,50.09
2019-04-05T11:02:04.186Z,50.17
2019-04-05T11:04:05.795Z,50.37
2019-04-05T11:06:07.389Z,50.60
2019-04-05T11:08:09.046Z,50.88
2019-04-05T11:10:10.665Z,51.00
2019-04-05T11:12:12.280Z,50.97
2019-04-05T11:14:14.336Z,50.66
2019-04-05T11:16:15.526Z,50.56
2019-04-05T11:18:17.172Z,50.51
2019-04-05T11:20:22.168Z,50.44
2019-04-05T11:22:21.185Z,50.30
2019-04-05T11:24:22.316Z,50.24
2019-04-05T11:26:23.959Z,50.27
2019-04-05T11:28:25.673Z,50.26
2019-04-05T11:30:27.269Z,50.29
2019-04-05T11:32:28.876Z,50.31
2019-04-05T11:34:30.494Z,50.35
2019-04-05T11:36:32.092Z,50.31
2019-04-05T11:38:33.725Z,50.31
2019-04-05T11:40:35.347Z,50.31
2019-04-05T11:42:36.961Z,50.37
2019-04-05T11:44:38.594Z,50.41
2019-04-05T11:46:40.226Z,50.37
2019-04-05T11:48:41.856Z,50.31
2019-04-05T11:50:43.510Z,50.23
2019-04-05T11:52:45.128Z,50.20
2019-04-05T11:54:46.750Z,50.24
2019-04-05T11:56:48.369Z,50.16
2019-04-05T11:58:50.084Z,50.19
2019-04-05T12:00:52.708Z,50.15
2019-04-05T12:02:56.087Z,50.24
2019-04-05T12:04:57.714Z,50.24
2019-04-05T12:06:59.351Z,50.33
2019-04-05T12:09:01.457Z,50.30
2019-04-05T12:11:02.664Z,50.30
2019-04-05T12:13:04.327Z,50.25
2019-04-05T12:15:06.458Z,50.30
2019-04-05T12:17:09.702Z,50.29
2019-04-05T12:19:09.236Z,50.30
2019-04-05T12:21:10.884Z,50.24
2019-04-05T12:23:12.562Z,50.15
2019-04-05T12:25:14.290Z,50.11
2019-04-05T12:27:15.930Z,50.10
2019-04-05T12:29:17.521Z,50.13
2019-04-05T12:31:19.402Z,50.12
2019-04-05T12:33:21.017Z,50.14
2019-04-05T12:35:22.632Z,50.17
2019-04-05T12:37:24.804Z,50.23
2019-04-05T12:39:26.422Z,50.14
2019-04-05T12:41:28.036Z,50.21
2019-04-05T12:43:29.787Z,50.26
2019-04-05T12:45:31.390Z,50.38
2019-04-05T12:47:34.110Z,50.32
2019-04-05T12:49:35.849Z,50.50
2019-04-05T12:51:37.478Z,50.39
2019-04-05T12:53:39.184Z,50.39
2019-04-05T12:55:40.814Z,50.24
2019-04-05T12:57:42.428Z,50.34
2019-04-05T12:59:44.062Z,50.27
2019-04-05T13:01:46.480Z,50.33
2019-04-05T13:03:47.347Z,50.22
2019-04-05T13:05:51.330Z,50.31
2019-04-05T13:07:52.506Z,50.33
2019-04-05T13:09:54.941Z,50.59
2019-04-05T13:11:56.451Z,50.73
2019-04-05T13:13:56.327Z,50.79
2019-04-05T13:15:59.375Z,51.21
2019-04-05T13:18:01.207Z,51.11
2019-04-05T13:20:01.256Z,51.19
2019-04-05T13:22:02.931Z,52.02
2019-04-05T13:24:04.612Z,48.73
2019-04-05T13:26:05.664Z,49.22
2019-04-05T13:28:13.241Z,48.83
2019-04-05T13:30:09.032Z,48.92
2019-04-05T13:32:10.607Z,47.59
2019-04-05T13:34:12.205Z,47.96
2019-04-05T13:36:13.819Z,39.94
2019-04-05T13:38:15.411Z,40.73
2019-04-05T13:40:17.500Z,41.74
2019-04-05T13:42:19.135Z,42.61
2019-04-05T13:44:20.773Z,43.44
2019-04-05T13:46:25.844Z,44.18
2019-04-05T13:48:24.113Z,44.59
2019-04-05T13:50:25.718Z,44.64
2019-04-05T13:52:27.329Z,44.46
2019-04-05T13:54:28.989Z,45.33
2019-04-05T13:56:30.599Z,45.56
2019-04-05T13:58:32.207Z,45.87
2019-04-05T14:00:33.836Z,45.92
2019-04-05T14:02:35.452Z,46.07
2019-04-05T14:04:37.093Z,46.42
2019-04-05T14:06:38.692Z,46.75
2019-04-05T14:08:41.895Z,46.82
2019-04-05T14:10:42.039Z,46.89
2019-04-05T14:12:47.272Z,46.94
2019-04-05T14:14:51.388Z,47.18
2019-04-05T14:16:50.589Z,47.41
2019-04-05T14:18:52.209Z,47.32
2019-04-05T14:20:53.868Z,47.54
2019-04-05T14:22:55.450Z,47.87
2019-04-05T14:24:57.102Z,48.01
2019-04-05T14:26:59.058Z,47.97
2019-04-05T14:29:03.471Z,48.19
2019-04-05T14:31:02.810Z,48.07
2019-04-05T14:33:04.173Z,48.24
2019-04-05T14:35:07.775Z,48.21
2019-04-05T14:37:07.524Z,49.45
2019-04-05T14:39:09.151Z,47.60
2019-04-05T14:41:11.189Z,48.16
2019-04-05T14:43:14.908Z,48.53
2019-04-05T14:45:14.495Z,48.68
2019-04-05T14:47:16.090Z,47.93
2019-04-05T14:49:17.682Z,48.36
2019-04-05T14:51:19.297Z,49.66
2019-04-05T14:53:20.893Z,44.11
2019-04-05T14:55:22.553Z,46.63
2019-04-05T14:57:24.158Z,48.06
2019-04-05T14:59:25.756Z,47.69
2019-04-05T15:01:27.348Z,47.81
2019-04-05T15:03:28.974Z,48.08
2019-04-05T15:05:30.588Z,48.21
2019-04-05T15:07:32.189Z,48.33
2019-04-05T15:09:33.806Z,48.46
2019-04-05T15:11:35.410Z,48.50
2019-04-05T15:13:37.024Z,48.60
2019-04-05T15:15:38.677Z,48.60
2019-04-05T15:17:47.965Z,48.73
2019-04-05T15:19:41.962Z,48.81
2019-04-05T15:21:44.915Z,48.85
2019-04-05T15:23:46.188Z,46.97
2019-04-05T15:25:49.428Z,46.87
2019-04-05T15:27:51.727Z,47.42
2019-04-05T15:29:50.224Z,47.83
2019-04-05T15:31:53.430Z,48.01
2019-04-05T15:33:53.526Z,48.29
2019-04-05T15:35:58.356Z,48.50
2019-04-05T15:37:56.815Z,48.63
2019-04-05T15:39:58.640Z,48.74
2019-04-05T15:42:00.040Z,48.79
2019-04-05T15:44:01.652Z,48.80
2019-04-05T15:46:03.282Z,48.92
2019-04-05T15:48:04.939Z,49.05
2019-04-05T15:50:06.544Z,48.42
2019-04-05T15:52:18.139Z,47.77
2019-04-05T15:54:09.774Z,47.43
2019-04-05T15:56:11.368Z,47.58
2019-04-05T15:58:13.004Z,47.93
2019-04-05T16:00:15.563Z,47.49
2019-04-05T16:02:17.152Z,47.20
2019-04-05T16:04:18.749Z,47.05
2019-04-05T16:06:20.347Z,47.37
2019-04-05T16:08:21.928Z,47.69
2019-04-05T16:10:23.541Z,47.99
2019-04-05T16:12:25.149Z,48.21
2019-04-05T16:14:26.808Z,48.05
2019-04-05T16:16:28.418Z,48.77
2019-04-05T16:18:30.026Z,48.40
2019-04-05T16:20:31.640Z,50.10
2019-04-05T16:22:35.756Z,49.51
2019-04-05T16:24:34.900Z,49.70
2019-04-05T16:26:36.523Z,49.92
2019-04-05T16:28:40.863Z,50.01
2019-04-05T16:30:39.986Z,50.07
2019-04-05T16:32:41.597Z,50.05
2019-04-05T16:34:43.230Z,50.14
2019-04-05T16:36:44.840Z,50.20
2019-04-05T16:38:46.441Z,50.19
2019-04-05T16:40:48.072Z,50.27
2019-04-05T16:43:01.749Z,50.30
2019-04-05T16:44:51.352Z,50.33
2019-04-05T16:46:53.166Z,50.36
2019-04-05T16:48:54.756Z,50.38
2019-04-05T16:50:56.426Z,50.43
2019-04-05T16:52:58.022Z,50.44
2019-04-05T16:54:59.641Z,50.45
2019-04-05T16:57:01.370Z,50.47
2019-04-05T16:59:02.997Z,50.48
2019-04-05T17:01:04.629Z,50.44
2019-04-05T17:03:06.238Z,50.30
2019-04-05T17:05:08.523Z,50.46
2019-04-05T17:07:10.206Z,50.46
2019-04-05T17:09:11.814Z,50.46
2019-04-05T17:11:13.440Z,50.41
2019-04-05T17:13:15.042Z,50.27
2019-04-05T17:15:16.693Z,50.31
2019-04-05T17:17:18.307Z,50.30
2019-04-05T17:19:20.594Z,50.16
2019-04-05T17:21:22.277Z,50.19
2019-04-05T17:23:23.881Z,50.15
2019-04-05T17:25:25.622Z,49.97
2019-04-05T17:27:27.215Z,50.05
2019-04-05T17:29:28.837Z,50.17
2019-04-05T17:31:30.482Z,50.20
2019-04-05T17:33:32.080Z,50.18
2019-04-05T17:35:33.700Z,50.21
2019-04-05T17:37:35.326Z,50.13
2019-04-05T17:39:36.934Z,50.23
2019-04-05T17:41:38.558Z,50.26
2019-04-05T17:43:40.176Z,50.26
2019-04-05T17:45:41.796Z,50.26
2019-04-05T17:47:43.408Z,50.31
2019-04-05T17:49:45.046Z,50.32
2019-04-05T17:51:46.677Z,50.33
2019-04-05T17:53:48.275Z,50.23
2019-04-05T17:55:49.871Z,50.27
2019-04-05T17:57:51.469Z,50.37
2019-04-05T17:59:53.065Z,50.31
2019-04-05T18:01:54.703Z,50.45
2019-04-05T18:03:56.309Z,50.46
2019-04-05T18:05:58.023Z,50.48
2019-04-05T18:07:59.678Z,50.42
2019-04-05T18:10:01.291Z,49.58
2019-04-05T18:12:02.931Z,49.29
2019-04-05T18:14:04.590Z,49.29
2019-04-05T18:16:06.179Z,48.65
2019-04-05T18:18:07.803Z,48.94
2019-04-05T18:20:10.020Z,48.90
2019-04-05T18:22:11.144Z,48.94
2019-04-05T18:24:12.760Z,48.52
2019-04-05T18:26:14.376Z,48.58
2019-04-05T18:28:16.038Z,48.52
2019-04-05T18:30:17.636Z,48.71
2019-04-05T18:32:19.211Z,48.58
2019-04-05T18:34:20.808Z,48.75
2019-04-05T18:36:22.404Z,49.24
2019-04-05T18:38:24.037Z,49.25
2019-04-05T18:40:25.703Z,49.52
2019-04-05T18:42:27.360Z,49.74
2019-04-05T18:44:28.954Z,49.73
2019-04-05T18:46:30.560Z,49.70
2019-04-05T18:48:32.316Z,49.51
2019-04-05T18:50:34.028Z,49.66
2019-04-05T18:52:35.647Z,49.30
2019-04-05T18:54:37.240Z,49.64
2019-04-05T18:56:38.854Z,49.04
2019-04-05T18:58:40.504Z,49.19
2019-04-05T19:00:42.176Z,49.69
2019-04-05T19:02:43.806Z,49.80
2019-04-05T19:04:45.428Z,49.75
2019-04-05T19:06:47.038Z,50.07
2019-04-05T19:08:48.712Z,50.67
2019-04-05T19:10:50.305Z,51.04
2019-04-05T19:12:51.986Z,51.33
2019-04-05T19:14:53.535Z,51.49
2019-04-05T19:16:55.153Z,50.93
2019-04-05T19:18:56.766Z,50.66
2019-04-05T19:20:58.427Z,50.75
2019-04-05T19:23:00.049Z,50.41
2019-04-05T19:25:04.742Z,50.49
2019-04-05T19:27:03.661Z,50.33
2019-04-05T19:29:05.368Z,50.38
2019-04-05T19:49:23.200Z,50.83
2019-04-05T19:51:24.844Z,50.09
2019-04-05T19:53:26.431Z,50.31
2019-04-05T19:55:28.113Z,50.58
2019-04-05T19:57:29.831Z,50.67
2019-04-05T19:59:31.450Z,50.96
2019-04-05T20:01:33.047Z,50.89
2019-04-05T20:03:34.668Z,50.75
2019-04-05T20:05:36.295Z,51.04
2019-04-05T20:07:37.955Z,51.10
2019-04-05T20:09:39.550Z,51.31
2019-04-05T20:11:41.164Z,51.22
2019-04-05T20:13:42.832Z,51.15
2019-04-05T20:15:44.428Z,51.11
2019-04-05T20:17:46.125Z,51.22
2019-04-05T20:19:47.738Z,51.22
2019-04-05T20:21:49.376Z,51.25
2019-04-05T20:23:51.000Z,51.31
2019-04-05T20:25:52.593Z,51.45
2019-04-05T20:27:54.182Z,51.51
2019-04-05T20:29:55.777Z,51.80
2019-04-05T20:31:57.363Z,51.82
2019-04-05T20:33:58.980Z,51.64
2019-04-05T20:36:00.625Z,51.73
2019-04-05T20:38:02.312Z,51.06
2019-04-05T20:40:03.990Z,50.77
2019-04-05T20:42:05.568Z,51.13
2019-04-05T20:44:07.190Z,51.33
2019-04-05T20:46:08.776Z,51.42
2019-04-05T20:48:10.369Z,51.34
2019-04-05T20:50:11.989Z,51.58
2019-04-05T20:52:13.595Z,51.54
2019-04-05T20:54:24.197Z,51.13
2019-04-05T20:56:16.920Z,51.25
2019-04-05T20:58:18.580Z,50.40
2019-04-05T21:00:20.195Z,50.46
2019-04-05T21:02:21.799Z,50.16
2019-04-05T21:04:23.383Z,50.92
2019-04-05T21:06:25.028Z,51.53
2019-04-05T21:08:26.640Z,51.84
2019-04-05T21:10:28.299Z,52.09
2019-04-05T21:12:29.893Z,52.39
2019-04-05T21:14:31.508Z,52.49
2019-04-05T21:16:33.141Z,52.86
2019-04-05T21:18:34.838Z,52.95
2019-04-05T21:20:36.496Z,53.34
2019-04-05T21:22:38.123Z,53.45
2019-04-05T21:24:39.719Z,53.47
2019-04-05T21:26:41.400Z,53.54
2019-04-05T21:28:43.023Z,54.12
2019-04-05T21:30:44.680Z,54.24
2019-04-05T21:32:46.280Z,54.40
2019-04-05T21:34:47.879Z,54.52
2019-04-05T21:36:49.508Z,54.78
2019-04-05T21:38:51.100Z,54.56
2019-04-05T21:40:52.698Z,54.83
2019-04-05T21:42:54.993Z,54.90
2019-04-05T21:44:56.599Z,55.00
2019-04-05T21:46:58.193Z,55.45
2019-04-05T21:48:59.800Z,55.53
2019-04-05T21:51:01.432Z,55.61
2019-04-05T21:53:03.093Z,55.61
2019-04-05T21:55:04.803Z,55.88
2019-04-05T21:57:06.450Z,56.10
2019-04-05T21:59:08.072Z,55.77
2019-04-05T22:01:09.723Z,55.90
2019-04-05T22:03:11.337Z,56.12
2019-04-05T22:05:12.934Z,56.22
2019-04-05T22:07:14.532Z,56.25
2019-04-05T22:09:16.145Z,56.47
2019-04-05T22:11:17.771Z,56.58
2019-04-05T22:13:19.385Z,56.86
2019-04-05T22:15:20.980Z,56.70
2019-04-05T22:17:22.598Z,56.73
2019-04-05T22:19:24.186Z,57.09
2019-04-05T22:21:25.836Z,57.09
2019-04-05T22:23:27.452Z,57.08
2019-04-05T22:25:29.068Z,56.87
2019-04-05T22:27:30.716Z,56.93
2019-04-05T22:29:32.318Z,57.13
2019-04-05T22:31:33.937Z,57.19
2019-04-05T22:33:35.569Z,57.22
2019-04-05T22:35:37.184Z,57.33
2019-04-05T22:37:38.780Z,57.31
2019-04-05T22:39:40.372Z,57.21
2019-04-05T22:41:41.950Z,57.07
2019-04-05T22:43:43.526Z,57.41
2019-04-05T22:45:45.180Z,57.45
2019-04-05T22:47:46.776Z,57.45
2019-04-05T22:49:48.387Z,57.32
2019-04-05T22:51:50.014Z,57.53
2019-04-05T22:53:51.634Z,57.53
2019-04-05T22:55:53.214Z,57.44
2019-04-05T22:57:54.828Z,57.32
2019-04-05T22:59:56.439Z,57.61
2019-04-05T23:01:58.032Z,57.75
2019-04-05T23:03:59.680Z,57.89
2019-04-05T23:06:01.300Z,57.94
2019-04-05T23:08:02.952Z,57.99
2019-04-05T23:10:04.584Z,58.17
2019-04-05T23:12:06.204Z,58.38
2019-04-05T23:14:07.822Z,58.54
2019-04-05T23:16:09.450Z,58.68
2019-04-05T23:18:11.041Z,58.96
2019-04-05T23:20:12.660Z,59.03
2019-04-05T23:22:14.272Z,59.09
2019-04-05T23:24:15.883Z,59.21
2019-04-05T23:26:17.532Z,59.26
2019-04-05T23:28:19.132Z,59.22
2019-04-05T23:30:20.771Z,59.25
2019-04-05T23:32:22.394Z,59.10
2019-04-05T23:34:24.007Z,59.01
2019-04-05T23:36:25.659Z,58.91
2019-04-05T23:38:27.243Z,58.97
2019-04-05T23:40:28.833Z,58.90
2019-04-05T23:42:30.445Z,58.96
2019-04-05T23:44:32.060Z,58.98
2019-04-05T23:46:33.681Z,59.00
2019-04-05T23:48:35.276Z,58.99
2019-04-05T23:50:36.888Z,59.00
2019-04-05T23:52:38.507Z,59.04
2019-04-05T23:54:40.102Z,59.05
2019-04-05T23:56:41.743Z,59.02
2019-04-05T23:58:43.360Z,59.06
